sensor_id;sensor_type;location;lat;lon;timestamp;P1;durP1;ratioP1;P2;durP2;ratioP2
37201;SDS011;37799;52.390;6.136;2024-01-16T00:01:44;7.75;;;0.70;;
37201;SDS011;37799;52.390;6.136;2024-01-16T00:04:09;8.48;;;0.20;;
37201;SDS011;37799;52.390;6.136;2024-01-16T00:06:39;4.85;;;0.45;;
37201;SDS011;37799;52.390;6.136;2024-01-16T00:09:07;0.85;;;0.10;;
37201;SDS011;37799;52.390;6.136;2024-01-16T00:11:39;2.08;;;0.15;;
37201;SDS011;37799;52.390;6.136;2024-01-16T00:14:05;3.15;;;0.38;;
37201;SDS011;37799;52.390;6.136;2024-01-16T00:16:30;4.00;;;0.20;;
37201;SDS011;37799;52.390;6.136;2024-01-16T00:18:55;4.35;;;0.30;;
37201;SDS011;37799;52.390;6.136;2024-01-16T00:21:21;3.97;;;0.20;;
37201;SDS011;37799;52.390;6.136;2024-01-16T00:23:46;6.15;;;0.55;;
37201;SDS011;37799;52.390;6.136;2024-01-16T00:26:21;2.28;;;0.20;;
37201;SDS011;37799;52.390;6.136;2024-01-16T00:28:47;3.55;;;0.30;;
37201;SDS011;37799;52.390;6.136;2024-01-16T00:31:12;4.85;;;0.40;;
37201;SDS011;37799;52.390;6.136;2024-01-16T00:33:38;5.97;;;0.30;;
37201;SDS011;37799;52.390;6.136;2024-01-16T00:36:04;3.78;;;0.25;;
37201;SDS011;37799;52.390;6.136;2024-01-16T00:38:32;2.65;;;0.30;;
37201;SDS011;37799;52.390;6.136;2024-01-16T00:40:58;5.15;;;0.50;;
37201;SDS011;37799;52.390;6.136;2024-01-16T00:43:23;2.25;;;0.30;;
37201;SDS011;37799;52.390;6.136;2024-01-16T00:45:49;5.20;;;0.30;;
37201;SDS011;37799;52.390;6.136;2024-01-16T00:48:15;3.55;;;0.30;;
37201;SDS011;37799;52.390;6.136;2024-01-16T00:50:40;3.22;;;0.20;;
37201;SDS011;37799;52.390;6.136;2024-01-16T00:53:06;4.35;;;0.30;;
37201;SDS011;37799;52.390;6.136;2024-01-16T00:55:31;7.20;;;0.55;;
37201;SDS011;37799;52.390;6.136;2024-01-16T00:57:57;6.57;;;0.60;;
37201;SDS011;37799;52.390;6.136;2024-01-16T01:00:22;4.72;;;0.20;;
37201;SDS011;37799;52.390;6.136;2024-01-16T01:02:47;3.50;;;0.20;;
37201;SDS011;37799;52.390;6.136;2024-01-16T01:05:12;4.03;;;0.38;;
37201;SDS011;37799;52.390;6.136;2024-01-16T01:07:38;4.82;;;0.55;;
37201;SDS011;37799;52.390;6.136;2024-01-16T01:10:03;3.53;;;0.65;;
37201;SDS011;37799;52.390;6.136;2024-01-16T01:12:29;9.45;;;0.70;;
37201;SDS011;37799;52.390;6.136;2024-01-16T01:14:54;3.28;;;0.30;;
37201;SDS011;37799;52.390;6.136;2024-01-16T01:17:19;3.45;;;0.40;;
37201;SDS011;37799;52.390;6.136;2024-01-16T01:19:45;9.18;;;0.25;;
37201;SDS011;37799;52.390;6.136;2024-01-16T01:22:11;6.38;;;0.45;;
37201;SDS011;37799;52.390;6.136;2024-01-16T01:24:36;4.60;;;0.38;;
37201;SDS011;37799;52.390;6.136;2024-01-16T01:27:01;8.35;;;0.43;;
37201;SDS011;37799;52.390;6.136;2024-01-16T01:29:27;4.47;;;0.50;;
37201;SDS011;37799;52.390;6.136;2024-01-16T01:31:52;4.32;;;0.40;;
37201;SDS011;37799;52.390;6.136;2024-01-16T01:34:17;4.60;;;0.30;;
37201;SDS011;37799;52.390;6.136;2024-01-16T01:36:43;3.47;;;0.20;;
37201;SDS011;37799;52.390;6.136;2024-01-16T01:39:08;4.13;;;0.28;;
37201;SDS011;37799;52.390;6.136;2024-01-16T01:41:34;5.82;;;0.40;;
37201;SDS011;37799;52.390;6.136;2024-01-16T01:43:59;1.90;;;0.30;;
37201;SDS011;37799;52.390;6.136;2024-01-16T01:46:24;3.30;;;0.20;;
37201;SDS011;37799;52.390;6.136;2024-01-16T01:48:50;3.63;;;0.38;;
37201;SDS011;37799;52.390;6.136;2024-01-16T01:51:18;4.60;;;0.63;;
37201;SDS011;37799;52.390;6.136;2024-01-16T01:53:45;5.82;;;0.30;;
37201;SDS011;37799;52.390;6.136;2024-01-16T01:56:14;3.45;;;0.40;;
37201;SDS011;37799;52.390;6.136;2024-01-16T01:58:43;4.18;;;0.35;;
37201;SDS011;37799;52.390;6.136;2024-01-16T02:01:10;3.78;;;0.60;;
37201;SDS011;37799;52.390;6.136;2024-01-16T02:03:42;9.52;;;0.43;;
37201;SDS011;37799;52.390;6.136;2024-01-16T02:06:08;2.33;;;0.30;;
37201;SDS011;37799;52.390;6.136;2024-01-16T02:08:40;4.70;;;0.30;;
37201;SDS011;37799;52.390;6.136;2024-01-16T02:11:06;6.43;;;0.22;;
37201;SDS011;37799;52.390;6.136;2024-01-16T02:13:32;3.00;;;0.40;;
37201;SDS011;37799;52.390;6.136;2024-01-16T02:15:57;7.50;;;0.68;;
37201;SDS011;37799;52.390;6.136;2024-01-16T02:18:22;3.83;;;0.30;;
37201;SDS011;37799;52.390;6.136;2024-01-16T02:20:48;2.80;;;0.28;;
37201;SDS011;37799;52.390;6.136;2024-01-16T02:23:14;7.00;;;0.60;;
37201;SDS011;37799;52.390;6.136;2024-01-16T02:25:43;2.78;;;0.20;;
37201;SDS011;37799;52.390;6.136;2024-01-16T02:28:08;2.90;;;0.28;;
37201;SDS011;37799;52.390;6.136;2024-01-16T02:30:34;4.63;;;0.30;;
37201;SDS011;37799;52.390;6.136;2024-01-16T02:32:59;8.13;;;0.50;;
37201;SDS011;37799;52.390;6.136;2024-01-16T02:35:24;1.92;;;0.10;;
37201;SDS011;37799;52.390;6.136;2024-01-16T02:37:50;3.42;;;0.22;;
37201;SDS011;37799;52.390;6.136;2024-01-16T02:40:15;7.88;;;0.55;;
37201;SDS011;37799;52.390;6.136;2024-01-16T02:42:40;2.78;;;0.30;;
37201;SDS011;37799;52.390;6.136;2024-01-16T02:45:06;5.53;;;0.32;;
37201;SDS011;37799;52.390;6.136;2024-01-16T02:47:32;6.10;;;0.20;;
37201;SDS011;37799;52.390;6.136;2024-01-16T02:49:58;3.92;;;0.30;;
37201;SDS011;37799;52.390;6.136;2024-01-16T02:52:24;2.28;;;0.38;;
37201;SDS011;37799;52.390;6.136;2024-01-16T02:54:49;5.25;;;0.30;;
37201;SDS011;37799;52.390;6.136;2024-01-16T02:57:15;4.88;;;0.20;;
37201;SDS011;37799;52.390;6.136;2024-01-16T02:59:42;4.28;;;0.25;;
37201;SDS011;37799;52.390;6.136;2024-01-16T03:02:08;2.65;;;0.20;;
37201;SDS011;37799;52.390;6.136;2024-01-16T03:04:34;7.70;;;0.30;;
37201;SDS011;37799;52.390;6.136;2024-01-16T03:07:00;5.22;;;0.30;;
37201;SDS011;37799;52.390;6.136;2024-01-16T03:09:25;2.13;;;0.40;;
37201;SDS011;37799;52.390;6.136;2024-01-16T03:11:51;1.30;;;0.28;;
37201;SDS011;37799;52.390;6.136;2024-01-16T03:14:17;3.97;;;0.30;;
37201;SDS011;37799;52.390;6.136;2024-01-16T03:16:43;6.05;;;0.30;;
37201;SDS011;37799;52.390;6.136;2024-01-16T03:19:09;5.90;;;0.45;;
37201;SDS011;37799;52.390;6.136;2024-01-16T03:21:34;6.70;;;0.30;;
37201;SDS011;37799;52.390;6.136;2024-01-16T03:24:00;3.78;;;0.28;;
37201;SDS011;37799;52.390;6.136;2024-01-16T03:26:25;4.15;;;0.50;;
37201;SDS011;37799;52.390;6.136;2024-01-16T03:28:50;5.10;;;0.38;;
37201;SDS011;37799;52.390;6.136;2024-01-16T03:31:16;1.63;;;0.15;;
37201;SDS011;37799;52.390;6.136;2024-01-16T03:33:41;2.88;;;0.35;;
37201;SDS011;37799;52.390;6.136;2024-01-16T03:36:08;4.43;;;0.40;;
37201;SDS011;37799;52.390;6.136;2024-01-16T03:38:35;3.60;;;0.50;;
37201;SDS011;37799;52.390;6.136;2024-01-16T03:41:01;3.13;;;0.38;;
37201;SDS011;37799;52.390;6.136;2024-01-16T03:43:28;6.20;;;0.40;;
37201;SDS011;37799;52.390;6.136;2024-01-16T03:45:56;3.15;;;0.45;;
37201;SDS011;37799;52.390;6.136;2024-01-16T03:48:22;1.33;;;0.13;;
37201;SDS011;37799;52.390;6.136;2024-01-16T03:50:47;5.30;;;0.40;;
37201;SDS011;37799;52.390;6.136;2024-01-16T03:53:12;1.67;;;0.20;;
37201;SDS011;37799;52.390;6.136;2024-01-16T03:55:37;3.10;;;0.35;;
37201;SDS011;37799;52.390;6.136;2024-01-16T03:58:03;2.28;;;0.22;;
37201;SDS011;37799;52.390;6.136;2024-01-16T04:00:28;2.17;;;0.63;;
37201;SDS011;37799;52.390;6.136;2024-01-16T04:02:53;1.52;;;0.25;;
37201;SDS011;37799;52.390;6.136;2024-01-16T04:05:19;1.95;;;0.17;;
37201;SDS011;37799;52.390;6.136;2024-01-16T04:07:44;3.25;;;0.40;;
37201;SDS011;37799;52.390;6.136;2024-01-16T04:10:09;4.35;;;0.50;;
37201;SDS011;37799;52.390;6.136;2024-01-16T04:12:35;3.47;;;0.50;;
37201;SDS011;37799;52.390;6.136;2024-01-16T04:15:00;6.28;;;0.40;;
37201;SDS011;37799;52.390;6.136;2024-01-16T04:17:26;3.00;;;0.20;;
37201;SDS011;37799;52.390;6.136;2024-01-16T04:19:51;4.18;;;0.30;;
37201;SDS011;37799;52.390;6.136;2024-01-16T04:22:16;4.38;;;0.55;;
37201;SDS011;37799;52.390;6.136;2024-01-16T04:24:41;3.22;;;0.50;;
37201;SDS011;37799;52.390;6.136;2024-01-16T04:27:07;6.03;;;0.68;;
37201;SDS011;37799;52.390;6.136;2024-01-16T04:29:32;1.45;;;0.10;;
37201;SDS011;37799;52.390;6.136;2024-01-16T04:31:57;2.22;;;0.30;;
37201;SDS011;37799;52.390;6.136;2024-01-16T04:34:23;2.15;;;0.30;;
37201;SDS011;37799;52.390;6.136;2024-01-16T04:36:48;3.08;;;0.10;;
37201;SDS011;37799;52.390;6.136;2024-01-16T04:39:13;4.03;;;0.30;;
37201;SDS011;37799;52.390;6.136;2024-01-16T04:41:39;1.40;;;0.30;;
37201;SDS011;37799;52.390;6.136;2024-01-16T04:44:04;1.52;;;0.35;;
37201;SDS011;37799;52.390;6.136;2024-01-16T04:46:29;3.45;;;0.40;;
37201;SDS011;37799;52.390;6.136;2024-01-16T04:48:55;4.05;;;0.70;;
37201;SDS011;37799;52.390;6.136;2024-01-16T04:51:20;2.53;;;0.40;;
37201;SDS011;37799;52.390;6.136;2024-01-16T04:53:45;6.18;;;0.65;;
37201;SDS011;37799;52.390;6.136;2024-01-16T04:56:11;5.68;;;0.80;;
37201;SDS011;37799;52.390;6.136;2024-01-16T04:58:36;2.70;;;0.40;;
37201;SDS011;37799;52.390;6.136;2024-01-16T05:01:01;2.17;;;0.40;;
37201;SDS011;37799;52.390;6.136;2024-01-16T05:03:27;3.55;;;0.40;;
37201;SDS011;37799;52.390;6.136;2024-01-16T05:05:52;3.00;;;0.52;;
37201;SDS011;37799;52.390;6.136;2024-01-16T05:08:18;4.43;;;0.50;;
37201;SDS011;37799;52.390;6.136;2024-01-16T05:10:43;6.25;;;0.50;;
37201;SDS011;37799;52.390;6.136;2024-01-16T05:13:08;1.60;;;0.30;;
37201;SDS011;37799;52.390;6.136;2024-01-16T05:15:36;3.50;;;0.50;;
37201;SDS011;37799;52.390;6.136;2024-01-16T05:18:01;1.52;;;0.25;;
37201;SDS011;37799;52.390;6.136;2024-01-16T05:20:28;3.03;;;0.57;;
37201;SDS011;37799;52.390;6.136;2024-01-16T05:22:54;3.33;;;0.30;;
37201;SDS011;37799;52.390;6.136;2024-01-16T05:25:19;2.17;;;0.40;;
37201;SDS011;37799;52.390;6.136;2024-01-16T05:27:46;3.05;;;0.40;;
37201;SDS011;37799;52.390;6.136;2024-01-16T05:30:11;2.13;;;0.22;;
37201;SDS011;37799;52.390;6.136;2024-01-16T05:32:37;3.20;;;0.38;;
37201;SDS011;37799;52.390;6.136;2024-01-16T05:35:04;3.50;;;0.35;;
37201;SDS011;37799;52.390;6.136;2024-01-16T05:37:30;3.88;;;0.35;;
37201;SDS011;37799;52.390;6.136;2024-01-16T05:39:55;3.13;;;0.40;;
37201;SDS011;37799;52.390;6.136;2024-01-16T05:42:20;4.72;;;0.60;;
37201;SDS011;37799;52.390;6.136;2024-01-16T05:44:46;2.28;;;0.40;;
37201;SDS011;37799;52.390;6.136;2024-01-16T05:47:11;8.10;;;0.80;;
37201;SDS011;37799;52.390;6.136;2024-01-16T05:49:36;3.88;;;0.45;;
37201;SDS011;37799;52.390;6.136;2024-01-16T05:52:02;2.15;;;0.40;;
37201;SDS011;37799;52.390;6.136;2024-01-16T05:54:27;5.25;;;0.55;;
37201;SDS011;37799;52.390;6.136;2024-01-16T05:56:52;4.22;;;0.70;;
37201;SDS011;37799;52.390;6.136;2024-01-16T05:59:18;5.55;;;0.70;;
37201;SDS011;37799;52.390;6.136;2024-01-16T06:01:43;2.00;;;0.47;;
37201;SDS011;37799;52.390;6.136;2024-01-16T06:04:08;4.70;;;0.73;;
37201;SDS011;37799;52.390;6.136;2024-01-16T06:06:34;3.88;;;0.40;;
37201;SDS011;37799;52.390;6.136;2024-01-16T06:08:59;3.88;;;0.60;;
37201;SDS011;37799;52.390;6.136;2024-01-16T06:11:32;2.40;;;0.47;;
37201;SDS011;37799;52.390;6.136;2024-01-16T06:13:59;4.43;;;0.65;;
37201;SDS011;37799;52.390;6.136;2024-01-16T06:16:24;3.58;;;0.70;;
37201;SDS011;37799;52.390;6.136;2024-01-16T06:18:50;5.82;;;0.82;;
37201;SDS011;37799;52.390;6.136;2024-01-16T06:21:15;6.55;;;0.77;;
37201;SDS011;37799;52.390;6.136;2024-01-16T06:23:41;6.75;;;0.70;;
37201;SDS011;37799;52.390;6.136;2024-01-16T06:26:07;4.03;;;0.82;;
37201;SDS011;37799;52.390;6.136;2024-01-16T06:28:33;5.68;;;0.80;;
37201;SDS011;37799;52.390;6.136;2024-01-16T06:30:58;6.35;;;0.65;;
37201;SDS011;37799;52.390;6.136;2024-01-16T06:33:23;2.88;;;0.60;;
37201;SDS011;37799;52.390;6.136;2024-01-16T06:35:49;2.97;;;0.50;;
37201;SDS011;37799;52.390;6.136;2024-01-16T06:38:14;4.45;;;0.55;;
37201;SDS011;37799;52.390;6.136;2024-01-16T06:40:39;5.45;;;0.93;;
37201;SDS011;37799;52.390;6.136;2024-01-16T06:43:05;3.05;;;0.60;;
37201;SDS011;37799;52.390;6.136;2024-01-16T06:45:31;3.55;;;0.70;;
37201;SDS011;37799;52.390;6.136;2024-01-16T06:47:56;4.32;;;0.60;;
37201;SDS011;37799;52.390;6.136;2024-01-16T06:50:22;2.95;;;0.50;;
37201;SDS011;37799;52.390;6.136;2024-01-16T06:52:47;5.60;;;0.77;;
37201;SDS011;37799;52.390;6.136;2024-01-16T06:55:12;4.10;;;0.90;;
37201;SDS011;37799;52.390;6.136;2024-01-16T06:57:38;4.53;;;0.93;;
37201;SDS011;37799;52.390;6.136;2024-01-16T07:00:03;3.00;;;0.65;;
37201;SDS011;37799;52.390;6.136;2024-01-16T07:02:32;5.75;;;1.10;;
37201;SDS011;37799;52.390;6.136;2024-01-16T07:04:57;4.18;;;0.82;;
37201;SDS011;37799;52.390;6.136;2024-01-16T07:07:23;3.63;;;1.00;;
37201;SDS011;37799;52.390;6.136;2024-01-16T07:09:49;5.63;;;1.30;;
37201;SDS011;37799;52.390;6.136;2024-01-16T07:12:15;9.18;;;1.45;;
37201;SDS011;37799;52.390;6.136;2024-01-16T07:14:40;4.82;;;1.27;;
37201;SDS011;37799;52.390;6.136;2024-01-16T07:17:06;5.85;;;1.25;;
37201;SDS011;37799;52.390;6.136;2024-01-16T07:19:32;8.02;;;1.27;;
37201;SDS011;37799;52.390;6.136;2024-01-16T07:21:58;5.45;;;1.42;;
37201;SDS011;37799;52.390;6.136;2024-01-16T07:24:23;7.78;;;1.80;;
37201;SDS011;37799;52.390;6.136;2024-01-16T07:26:49;6.53;;;1.45;;
37201;SDS011;37799;52.390;6.136;2024-01-16T07:29:14;5.47;;;1.45;;
37201;SDS011;37799;52.390;6.136;2024-01-16T07:31:40;5.30;;;1.00;;
37201;SDS011;37799;52.390;6.136;2024-01-16T07:34:06;6.95;;;1.70;;
37201;SDS011;37799;52.390;6.136;2024-01-16T07:36:31;6.15;;;1.52;;
37201;SDS011;37799;52.390;6.136;2024-01-16T07:38:56;3.78;;;1.08;;
37201;SDS011;37799;52.390;6.136;2024-01-16T07:41:22;9.02;;;1.50;;
37201;SDS011;37799;52.390;6.136;2024-01-16T07:43:47;4.72;;;1.70;;
37201;SDS011;37799;52.390;6.136;2024-01-16T07:46:13;8.70;;;2.40;;
37201;SDS011;37799;52.390;6.136;2024-01-16T07:48:38;10.32;;;2.00;;
37201;SDS011;37799;52.390;6.136;2024-01-16T07:51:03;7.78;;;2.00;;
37201;SDS011;37799;52.390;6.136;2024-01-16T07:53:29;9.70;;;2.00;;
37201;SDS011;37799;52.390;6.136;2024-01-16T07:55:54;9.55;;;1.88;;
37201;SDS011;37799;52.390;6.136;2024-01-16T07:58:20;7.13;;;1.75;;
37201;SDS011;37799;52.390;6.136;2024-01-16T08:00:45;7.00;;;1.67;;
37201;SDS011;37799;52.390;6.136;2024-01-16T08:03:11;6.63;;;1.80;;
37201;SDS011;37799;52.390;6.136;2024-01-16T08:05:36;6.88;;;2.03;;
37201;SDS011;37799;52.390;6.136;2024-01-16T08:08:02;4.35;;;1.17;;
37201;SDS011;37799;52.390;6.136;2024-01-16T08:10:28;6.20;;;1.85;;
37201;SDS011;37799;52.390;6.136;2024-01-16T08:12:53;8.35;;;2.08;;
37201;SDS011;37799;52.390;6.136;2024-01-16T08:15:18;9.15;;;2.28;;
37201;SDS011;37799;52.390;6.136;2024-01-16T08:17:43;7.45;;;2.08;;
37201;SDS011;37799;52.390;6.136;2024-01-16T08:20:09;8.73;;;2.20;;
37201;SDS011;37799;52.390;6.136;2024-01-16T08:22:35;10.00;;;1.70;;
37201;SDS011;37799;52.390;6.136;2024-01-16T08:25:01;8.73;;;1.77;;
37201;SDS011;37799;52.390;6.136;2024-01-16T08:27:27;7.28;;;1.60;;
37201;SDS011;37799;52.390;6.136;2024-01-16T08:29:53;6.28;;;1.48;;
37201;SDS011;37799;52.390;6.136;2024-01-16T08:32:18;6.55;;;1.38;;
37201;SDS011;37799;52.390;6.136;2024-01-16T08:34:44;7.03;;;1.73;;
37201;SDS011;37799;52.390;6.136;2024-01-16T08:37:09;5.40;;;1.50;;
37201;SDS011;37799;52.390;6.136;2024-01-16T08:39:35;6.05;;;1.05;;
37201;SDS011;37799;52.390;6.136;2024-01-16T08:42:00;8.30;;;1.63;;
37201;SDS011;37799;52.390;6.136;2024-01-16T08:44:28;4.20;;;1.17;;
37201;SDS011;37799;52.390;6.136;2024-01-16T08:46:54;6.00;;;1.70;;
37201;SDS011;37799;52.390;6.136;2024-01-16T08:49:19;6.75;;;1.80;;
37201;SDS011;37799;52.390;6.136;2024-01-16T08:51:45;4.78;;;1.40;;
37201;SDS011;37799;52.390;6.136;2024-01-16T08:54:10;5.93;;;1.15;;
37201;SDS011;37799;52.390;6.136;2024-01-16T08:56:35;6.45;;;1.70;;
37201;SDS011;37799;52.390;6.136;2024-01-16T08:59:01;10.30;;;1.75;;
37201;SDS011;37799;52.390;6.136;2024-01-16T09:01:27;9.45;;;1.67;;
37201;SDS011;37799;52.390;6.136;2024-01-16T09:03:52;9.18;;;1.73;;
37201;SDS011;37799;52.390;6.136;2024-01-16T09:06:17;3.63;;;1.02;;
37201;SDS011;37799;52.390;6.136;2024-01-16T09:08:43;4.40;;;1.27;;
37201;SDS011;37799;52.390;6.136;2024-01-16T09:11:09;7.60;;;1.50;;
37201;SDS011;37799;52.390;6.136;2024-01-16T09:13:36;6.05;;;1.63;;
37201;SDS011;37799;52.390;6.136;2024-01-16T09:16:02;8.88;;;1.63;;
37201;SDS011;37799;52.390;6.136;2024-01-16T09:18:27;5.32;;;1.65;;
37201;SDS011;37799;52.390;6.136;2024-01-16T09:20:52;3.80;;;1.25;;
37201;SDS011;37799;52.390;6.136;2024-01-16T09:23:18;6.50;;;1.70;;
37201;SDS011;37799;52.390;6.136;2024-01-16T09:25:43;6.13;;;2.38;;
37201;SDS011;37799;52.390;6.136;2024-01-16T09:28:08;8.07;;;1.58;;
37201;SDS011;37799;52.390;6.136;2024-01-16T09:30:33;6.25;;;1.70;;
37201;SDS011;37799;52.390;6.136;2024-01-16T09:32:59;6.03;;;1.40;;
37201;SDS011;37799;52.390;6.136;2024-01-16T09:35:24;9.40;;;1.95;;
37201;SDS011;37799;52.390;6.136;2024-01-16T09:37:49;6.85;;;1.80;;
37201;SDS011;37799;52.390;6.136;2024-01-16T09:40:16;6.35;;;2.28;;
37201;SDS011;37799;52.390;6.136;2024-01-16T09:42:41;8.07;;;1.90;;
37201;SDS011;37799;52.390;6.136;2024-01-16T09:45:06;8.38;;;2.28;;
37201;SDS011;37799;52.390;6.136;2024-01-16T09:47:34;12.88;;;2.78;;
37201;SDS011;37799;52.390;6.136;2024-01-16T09:49:59;9.07;;;2.97;;
37201;SDS011;37799;52.390;6.136;2024-01-16T09:52:28;10.32;;;2.38;;
37201;SDS011;37799;52.390;6.136;2024-01-16T09:54:53;7.70;;;2.35;;
37201;SDS011;37799;52.390;6.136;2024-01-16T09:57:19;11.40;;;2.90;;
37201;SDS011;37799;52.390;6.136;2024-01-16T09:59:48;11.57;;;4.25;;
37201;SDS011;37799;52.390;6.136;2024-01-16T10:02:13;11.20;;;3.28;;
37201;SDS011;37799;52.390;6.136;2024-01-16T10:04:40;12.18;;;3.38;;
37201;SDS011;37799;52.390;6.136;2024-01-16T10:07:06;10.15;;;4.20;;
37201;SDS011;37799;52.390;6.136;2024-01-16T10:09:33;12.40;;;3.33;;
37201;SDS011;37799;52.390;6.136;2024-01-16T10:11:58;11.32;;;3.67;;
37201;SDS011;37799;52.390;6.136;2024-01-16T10:14:25;10.25;;;3.55;;
37201;SDS011;37799;52.390;6.136;2024-01-16T10:17:03;12.48;;;3.75;;
37201;SDS011;37799;52.390;6.136;2024-01-16T10:19:51;14.30;;;4.30;;
37201;SDS011;37799;52.390;6.136;2024-01-16T10:24:49;12.68;;;3.25;;
37201;SDS011;37799;52.390;6.136;2024-01-16T10:27:37;11.30;;;3.35;;
37201;SDS011;37799;52.390;6.136;2024-01-16T10:30:03;13.90;;;3.50;;
37201;SDS011;37799;52.390;6.136;2024-01-16T10:32:30;11.77;;;3.35;;
37201;SDS011;37799;52.390;6.136;2024-01-16T10:35:06;8.25;;;2.92;;
37201;SDS011;37799;52.390;6.136;2024-01-16T10:37:43;9.13;;;2.78;;
37201;SDS011;37799;52.390;6.136;2024-01-16T10:40:21;7.65;;;2.40;;
37201;SDS011;37799;52.390;6.136;2024-01-16T10:45:22;9.77;;;2.72;;
37201;SDS011;37799;52.390;6.136;2024-01-16T10:47:49;10.63;;;2.70;;
37201;SDS011;37799;52.390;6.136;2024-01-16T10:50:25;9.88;;;2.55;;
37201;SDS011;37799;52.390;6.136;2024-01-16T10:52:50;8.80;;;2.78;;
37201;SDS011;37799;52.390;6.136;2024-01-16T10:55:20;5.72;;;1.67;;
37201;SDS011;37799;52.390;6.136;2024-01-16T10:57:50;6.93;;;1.92;;
37201;SDS011;37799;52.390;6.136;2024-01-16T11:00:20;8.48;;;2.47;;
37201;SDS011;37799;52.390;6.136;2024-01-16T11:02:50;6.72;;;1.95;;
37201;SDS011;37799;52.390;6.136;2024-01-16T11:05:23;8.05;;;2.58;;
37201;SDS011;37799;52.390;6.136;2024-01-16T11:07:55;9.30;;;2.47;;
37201;SDS011;37799;52.390;6.136;2024-01-16T11:10:21;8.75;;;2.60;;
37201;SDS011;37799;52.390;6.136;2024-01-16T11:12:46;6.95;;;1.60;;
37201;SDS011;37799;52.390;6.136;2024-01-16T11:15:14;7.07;;;1.40;;
37201;SDS011;37799;52.390;6.136;2024-01-16T11:17:39;10.27;;;2.17;;
37201;SDS011;37799;52.390;6.136;2024-01-16T11:20:09;10.10;;;3.10;;
37201;SDS011;37799;52.390;6.136;2024-01-16T11:22:38;5.68;;;1.70;;
37201;SDS011;37799;52.390;6.136;2024-01-16T11:25:08;5.22;;;1.73;;
37201;SDS011;37799;52.390;6.136;2024-01-16T11:27:38;6.63;;;1.40;;
37201;SDS011;37799;52.390;6.136;2024-01-16T11:30:04;5.95;;;1.58;;
37201;SDS011;37799;52.390;6.136;2024-01-16T11:32:35;6.78;;;1.23;;
37201;SDS011;37799;52.390;6.136;2024-01-16T11:37:31;7.07;;;1.33;;
37201;SDS011;37799;52.390;6.136;2024-01-16T11:42:42;8.80;;;1.83;;
37201;SDS011;37799;52.390;6.136;2024-01-16T11:45:08;4.68;;;1.23;;
37201;SDS011;37799;52.390;6.136;2024-01-16T11:48:12;5.95;;;1.40;;
37201;SDS011;37799;52.390;6.136;2024-01-16T11:50:38;7.32;;;1.75;;
37201;SDS011;37799;52.390;6.136;2024-01-16T11:53:04;10.95;;;2.42;;
37201;SDS011;37799;52.390;6.136;2024-01-16T11:56:23;9.48;;;1.40;;
37201;SDS011;37799;52.390;6.136;2024-01-16T11:58:42;7.55;;;1.40;;
37201;SDS011;37799;52.390;6.136;2024-01-16T12:01:13;7.38;;;1.38;;
37201;SDS011;37799;52.390;6.136;2024-01-16T12:03:41;6.63;;;1.52;;
37201;SDS011;37799;52.390;6.136;2024-01-16T12:06:06;4.82;;;0.95;;
37201;SDS011;37799;52.390;6.136;2024-01-16T12:08:33;3.90;;;1.15;;
37201;SDS011;37799;52.390;6.136;2024-01-16T12:10:58;9.23;;;1.50;;
37201;SDS011;37799;52.390;6.136;2024-01-16T12:13:24;5.07;;;0.73;;
37201;SDS011;37799;52.390;6.136;2024-01-16T12:15:59;5.43;;;1.27;;
37201;SDS011;37799;52.390;6.136;2024-01-16T12:18:25;8.43;;;1.65;;
37201;SDS011;37799;52.390;6.136;2024-01-16T12:20:51;4.20;;;1.15;;
37201;SDS011;37799;52.390;6.136;2024-01-16T12:23:16;7.35;;;1.52;;
37201;SDS011;37799;52.390;6.136;2024-01-16T12:25:42;6.25;;;1.35;;
37201;SDS011;37799;52.390;6.136;2024-01-16T12:28:08;4.82;;;1.00;;
37201;SDS011;37799;52.390;6.136;2024-01-16T12:30:36;5.43;;;1.00;;
37201;SDS011;37799;52.390;6.136;2024-01-16T12:33:06;6.55;;;1.00;;
37201;SDS011;37799;52.390;6.136;2024-01-16T12:35:39;5.13;;;1.40;;
37201;SDS011;37799;52.390;6.136;2024-01-16T12:38:06;6.25;;;1.05;;
37201;SDS011;37799;52.390;6.136;2024-01-16T12:40:34;8.27;;;1.00;;
37201;SDS011;37799;52.390;6.136;2024-01-16T12:43:01;7.75;;;0.95;;
37201;SDS011;37799;52.390;6.136;2024-01-16T12:45:27;5.55;;;1.15;;
37201;SDS011;37799;52.390;6.136;2024-01-16T12:47:53;7.00;;;1.00;;
37201;SDS011;37799;52.390;6.136;2024-01-16T12:50:27;5.47;;;1.08;;
37201;SDS011;37799;52.390;6.136;2024-01-16T12:53:07;4.57;;;0.70;;
37201;SDS011;37799;52.390;6.136;2024-01-16T12:55:34;5.93;;;0.90;;
37201;SDS011;37799;52.390;6.136;2024-01-16T12:58:16;5.60;;;0.80;;
37201;SDS011;37799;52.390;6.136;2024-01-16T13:00:46;4.22;;;0.70;;
37201;SDS011;37799;52.390;6.136;2024-01-16T13:03:16;4.32;;;0.65;;
37201;SDS011;37799;52.390;6.136;2024-01-16T13:05:42;4.15;;;0.70;;
37201;SDS011;37799;52.390;6.136;2024-01-16T13:08:08;4.03;;;0.60;;
37201;SDS011;37799;52.390;6.136;2024-01-16T13:10:33;6.72;;;1.70;;
37201;SDS011;37799;52.390;6.136;2024-01-16T13:13:13;4.85;;;1.00;;
37201;SDS011;37799;52.390;6.136;2024-01-16T13:15:42;6.47;;;1.02;;
37201;SDS011;37799;52.390;6.136;2024-01-16T13:18:21;8.25;;;1.38;;
37201;SDS011;37799;52.390;6.136;2024-01-16T13:20:48;5.10;;;0.90;;
37201;SDS011;37799;52.390;6.136;2024-01-16T13:23:15;4.75;;;1.25;;
37201;SDS011;37799;52.390;6.136;2024-01-16T13:25:44;2.85;;;0.65;;
37201;SDS011;37799;52.390;6.136;2024-01-16T13:28:11;6.20;;;1.08;;
37201;SDS011;37799;52.390;6.136;2024-01-16T13:30:37;6.45;;;1.00;;
37201;SDS011;37799;52.390;6.136;2024-01-16T13:33:03;4.22;;;0.90;;
37201;SDS011;37799;52.390;6.136;2024-01-16T13:35:29;6.95;;;0.77;;
37201;SDS011;37799;52.390;6.136;2024-01-16T13:37:55;6.35;;;0.93;;
37201;SDS011;37799;52.390;6.136;2024-01-16T13:40:20;6.38;;;1.02;;
37201;SDS011;37799;52.390;6.136;2024-01-16T13:42:47;5.20;;;1.27;;
37201;SDS011;37799;52.390;6.136;2024-01-16T13:45:13;4.18;;;0.68;;
37201;SDS011;37799;52.390;6.136;2024-01-16T13:47:39;7.35;;;1.48;;
37201;SDS011;37799;52.390;6.136;2024-01-16T13:50:05;3.67;;;0.68;;
37201;SDS011;37799;52.390;6.136;2024-01-16T13:52:32;6.25;;;0.88;;
37201;SDS011;37799;52.390;6.136;2024-01-16T13:55:01;3.75;;;0.73;;
37201;SDS011;37799;52.390;6.136;2024-01-16T13:57:30;7.90;;;0.73;;
37201;SDS011;37799;52.390;6.136;2024-01-16T13:59:56;2.85;;;0.63;;
37201;SDS011;37799;52.390;6.136;2024-01-16T14:02:22;6.03;;;0.68;;
37201;SDS011;37799;52.390;6.136;2024-01-16T14:04:47;5.15;;;0.90;;
37201;SDS011;37799;52.390;6.136;2024-01-16T14:07:12;2.83;;;0.65;;
37201;SDS011;37799;52.390;6.136;2024-01-16T14:09:38;4.22;;;0.88;;
37201;SDS011;37799;52.390;6.136;2024-01-16T14:12:06;5.90;;;0.80;;
37201;SDS011;37799;52.390;6.136;2024-01-16T14:14:33;6.70;;;0.80;;
37201;SDS011;37799;52.390;6.136;2024-01-16T14:16:58;4.95;;;0.95;;
37201;SDS011;37799;52.390;6.136;2024-01-16T14:19:24;6.90;;;1.10;;
37201;SDS011;37799;52.390;6.136;2024-01-16T14:21:51;3.85;;;0.70;;
37201;SDS011;37799;52.390;6.136;2024-01-16T14:24:17;2.72;;;0.70;;
37201;SDS011;37799;52.390;6.136;2024-01-16T14:26:42;3.50;;;0.60;;
37201;SDS011;37799;52.390;6.136;2024-01-16T14:29:11;4.25;;;0.85;;
37201;SDS011;37799;52.390;6.136;2024-01-16T14:31:38;4.28;;;0.75;;
37201;SDS011;37799;52.390;6.136;2024-01-16T14:34:03;5.28;;;1.00;;
37201;SDS011;37799;52.390;6.136;2024-01-16T14:36:29;6.43;;;0.98;;
37201;SDS011;37799;52.390;6.136;2024-01-16T14:38:54;5.28;;;1.10;;
37201;SDS011;37799;52.390;6.136;2024-01-16T14:41:21;5.65;;;0.80;;
37201;SDS011;37799;52.390;6.136;2024-01-16T14:43:46;6.03;;;0.98;;
37201;SDS011;37799;52.390;6.136;2024-01-16T14:46:12;6.60;;;1.08;;
37201;SDS011;37799;52.390;6.136;2024-01-16T14:48:38;3.45;;;0.77;;
37201;SDS011;37799;52.390;6.136;2024-01-16T14:51:09;4.60;;;0.93;;
37201;SDS011;37799;52.390;6.136;2024-01-16T14:53:35;6.55;;;0.98;;
37201;SDS011;37799;52.390;6.136;2024-01-16T14:56:01;7.18;;;1.27;;